Time;durP1;ratioP1;P1;durP2;ratioP2;P2;SDS_P1;SDS_P2;PMS_P1;PMS_P2;Temp;Humidity;BMP_temperature;BMP_pressure;BME280_temperature;BME280_humidity;BME280_pressure;Samples;Min_cycle;Max_cycle;Signal;HPM_P1;HPM_P2
2022/12/23 00:01:53;;;;;;;8.60;5.90;;;;;;;;;;108560;1267;38895;-35
2022/12/23 00:04:27;;;;;;;7.70;6.20;;;;;;;;;;108484;1260;47129;-35
2022/12/23 00:07:01;;;;;;;9.20;6.30;;;;;;;;;;108524;1267;43179;-35
2022/12/23 00:09:36;;;;;;;9.40;6.40;;;;;;;;;;108527;1269;42002;-36
2022/12/23 00:15:07;;;;;;;8.90;6.40;;;;;;;;;;108470;1260;46852;-35
2022/12/23 00:17:45;;;;;;;7.60;5.70;;;;;;;;;;108554;1267;44386;-36
2022/12/23 00:20:19;;;;;;;9.50;6.00;;;;;;;;;;108568;1282;42502;-35
2022/12/23 00:23:05;;;;;;;9.10;6.20;;;;;;;;;;108569;1267;40279;-35
2022/12/23 00:25:44;;;;;;;8.60;6.10;;;;;;;;;;108580;1271;47109;-35
2022/12/23 00:28:20;;;;;;;8.00;6.10;;;;;;;;;;108525;1267;44347;-35
2022/12/23 00:30:59;;;;;;;9.30;6.50;;;;;;;;;;108564;1267;42228;-36
2022/12/23 00:33:37;;;;;;;7.50;5.60;;;;;;;;;;108467;1260;38709;-36
2022/12/23 00:36:26;;;;;;;9.30;6.50;;;;;;;;;;108576;1267;39954;-36
2022/12/23 00:44:45;;;;;;;8.50;6.10;;;;;;;;;;108502;1260;38907;-35
2022/12/23 00:50:13;;;;;;;8.20;5.80;;;;;;;;;;108519;1274;43190;-36
2022/12/23 00:52:47;;;;;;;8.20;5.50;;;;;;;;;;108563;1267;43528;-35
2022/12/23 00:55:21;;;;;;;7.30;5.20;;;;;;;;;;108509;1267;38742;-35
2022/12/23 00:57:56;;;;;;;8.00;5.50;;;;;;;;;;108552;1267;40188;-37
2022/12/23 01:06:17;;;;;;;8.40;5.90;;;;;;;;;;108394;1266;175835;-35
2022/12/23 01:08:51;;;;;;;7.20;5.30;;;;;;;;;;108542;1269;40357;-36
2022/12/23 01:11:28;;;;;;;7.90;5.60;;;;;;;;;;108542;1267;43306;-35
2022/12/23 01:14:05;;;;;;;7.90;5.80;;;;;;;;;;108545;1268;42549;-37
2022/12/23 01:16:42;;;;;;;7.60;5.70;;;;;;;;;;108479;1259;45784;-37
2022/12/23 01:19:16;;;;;;;7.80;5.50;;;;;;;;;;108546;1270;41433;-35
2022/12/23 01:21:50;;;;;;;8.00;5.50;;;;;;;;;;108504;1267;43139;-34
2022/12/23 01:24:25;;;;;;;7.00;5.40;;;;;;;;;;108079;1269;433724;-35
2022/12/23 01:27:00;;;;;;;7.90;5.70;;;;;;;;;;108479;1265;45799;-35
2022/12/23 01:29:34;;;;;;;7.80;5.50;;;;;;;;;;108519;1268;41502;-35
2022/12/23 01:32:09;;;;;;;9.80;5.50;;;;;;;;;;108541;1267;43146;-35
2022/12/23 01:34:43;;;;;;;8.30;5.20;;;;;;;;;;108505;1267;43491;-35
2022/12/23 01:37:18;;;;;;;7.00;5.40;;;;;;;;;;108449;1260;44454;-36
2022/12/23 01:39:52;;;;;;;8.30;5.80;;;;;;;;;;108489;1267;40181;-35
2022/12/23 01:42:45;;;;;;;8.50;5.80;;;;;;;;;;108505;1267;43620;-36
2022/12/23 01:45:23;;;;;;;7.90;5.90;;;;;;;;;;108469;1260;42446;-34
2022/12/23 01:48:01;;;;;;;7.60;5.40;;;;;;;;;;108544;1267;40096;-35
2022/12/23 01:50:40;;;;;;;8.10;5.60;;;;;;;;;;108530;1267;41460;-35
2022/12/23 01:53:17;;;;;;;7.00;4.90;;;;;;;;;;108425;1267;175834;-35
2022/12/23 01:55:56;;;;;;;8.40;5.80;;;;;;;;;;108449;1266;42264;-35
2022/12/23 01:58:34;;;;;;;8.70;5.70;;;;;;;;;;108363;1269;192702;-36
2022/12/23 02:04:09;;;;;;;7.60;5.90;;;;;;;;;;108501;1267;42956;-36
2022/12/23 02:09:41;;;;;;;7.40;5.50;;;;;;;;;;108511;1267;39088;-34
2022/12/23 02:12:50;;;;;;;7.30;4.90;;;;;;;;;;108472;1267;40448;-36
2022/12/23 02:19:00;;;;;;;8.20;5.90;;;;;;;;;;108275;1262;48392;-35
2022/12/23 02:22:02;;;;;;;7.80;5.60;;;;;;;;;;108190;1276;176065;-35
2022/12/23 02:25:24;;;;;;;7.60;5.10;;;;;;;;;;103803;1284;3011099;-35
2022/12/23 02:28:24;;;;;;;7.90;5.50;;;;;;;;;;108145;1265;40448;-35
2022/12/23 02:31:08;;;;;;;7.90;5.50;;;;;;;;;;108458;1282;44400;-35
2022/12/23 02:33:57;;;;;;;6.80;5.30;;;;;;;;;;108455;1267;43492;-36
2022/12/23 02:36:42;;;;;;;6.80;5.20;;;;;;;;;;108506;1267;38964;-35
2022/12/23 02:39:22;;;;;;;7.70;5.40;;;;;;;;;;108474;1259;45490;-35
2022/12/23 02:42:04;;;;;;;7.20;5.20;;;;;;;;;;108485;1282;43130;-35
2022/12/23 02:44:47;;;;;;;7.50;5.20;;;;;;;;;;108459;1267;42220;-35
2022/12/23 02:47:27;;;;;;;8.00;5.10;;;;;;;;;;108455;1267;38880;-34
2022/12/23 02:50:08;;;;;;;7.40;5.10;;;;;;;;;;108470;1270;40094;-36
2022/12/23 02:52:46;;;;;;;7.30;5.30;;;;;;;;;;108464;1267;43312;-35
2022/12/23 02:55:28;;;;;;;7.90;5.50;;;;;;;;;;108422;1267;175422;-35
2022/12/23 02:58:09;;;;;;;8.80;5.60;;;;;;;;;;108501;1260;38987;-35
2022/12/23 03:00:45;;;;;;;7.80;5.90;;;;;;;;;;108464;1267;40176;-35
2022/12/23 03:03:20;;;;;;;8.00;5.60;;;;;;;;;;108537;1267;43111;-34
2022/12/23 03:05:56;;;;;;;8.20;5.90;;;;;;;;;;108490;1268;43404;-35
2022/12/23 03:08:38;;;;;;;7.20;5.30;;;;;;;;;;108489;1260;39111;-35
2022/12/23 03:11:15;;;;;;;8.00;5.50;;;;;;;;;;108482;1267;40243;-35
2022/12/23 03:14:23;;;;;;;7.40;5.60;;;;;;;;;;108498;1267;42977;-35
2022/12/23 03:17:10;;;;;;;7.70;5.50;;;;;;;;;;108495;1282;43633;-35
2022/12/23 03:19:52;;;;;;;8.00;5.50;;;;;;;;;;108472;1259;39063;-34
2022/12/23 03:22:35;;;;;;;6.80;5.20;;;;;;;;;;108477;1267;40394;-38
2022/12/23 03:25:19;;;;;;;8.00;5.40;;;;;;;;;;108469;1269;44648;-38
2022/12/23 03:28:01;;;;;;;6.80;5.30;;;;;;;;;;108471;1267;42194;-38
2022/12/23 03:30:39;;;;;;;7.30;5.50;;;;;;;;;;108469;1259;44892;-38
2022/12/23 03:33:19;;;;;;;7.30;5.10;;;;;;;;;;108348;1270;175869;-39
2022/12/23 03:35:59;;;;;;;7.50;5.60;;;;;;;;;;108438;1283;43269;-38
2022/12/23 03:38:39;;;;;;;7.50;5.00;;;;;;;;;;108407;1260;42345;-39
2022/12/23 03:41:19;;;;;;;7.90;5.20;;;;;;;;;;108466;1268;39412;-40
2022/12/23 03:43:59;;;;;;;6.70;5.20;;;;;;;;;;108467;1267;40347;-38
2022/12/23 03:46:41;;;;;;;7.10;5.00;;;;;;;;;;108523;1267;43136;-39
2022/12/23 03:49:22;;;;;;;7.50;4.90;;;;;;;;;;108419;1260;43635;-39
2022/12/23 03:52:02;;;;;;;7.40;5.10;;;;;;;;;;108493;1267;38871;-39
2022/12/23 03:54:43;;;;;;;6.70;5.00;;;;;;;;;;108498;1268;41027;-39
2022/12/23 03:57:20;;;;;;;6.70;4.90;;;;;;;;;;108488;1267;43148;-39
2022/12/23 03:59:54;;;;;;;7.10;5.00;;;;;;;;;;108463;1267;42229;-39
2022/12/23 04:02:42;;;;;;;7.30;5.10;;;;;;;;;;108503;1267;40246;-38
2022/12/23 04:05:26;;;;;;;6.70;5.00;;;;;;;;;;108465;1270;39991;-39
2022/12/23 04:08:06;;;;;;;6.70;5.10;;;;;;;;;;108489;1267;44287;-38
2022/12/23 04:10:41;;;;;;;7.80;4.80;;;;;;;;;;107775;1260;895523;-39
2022/12/23 04:13:16;;;;;;;7.30;5.10;;;;;;;;;;108491;1267;39074;-39
2022/12/23 04:15:50;;;;;;;6.50;4.70;;;;;;;;;;108460;1267;40330;-39
2022/12/23 04:18:25;;;;;;;6.80;4.70;;;;;;;;;;108477;1283;44597;-38
2022/12/23 04:20:59;;;;;;;6.20;4.50;;;;;;;;;;108420;1260;42054;-39
2022/12/23 04:23:34;;;;;;;5.80;4.00;;;;;;;;;;108466;1267;38929;-39
2022/12/23 04:26:09;;;;;;;7.80;4.90;;;;;;;;;;108501;1267;41477;-41
2022/12/23 04:28:43;;;;;;;6.50;4.40;;;;;;;;;;108471;1282;44545;-38
2022/12/23 04:31:17;;;;;;;6.50;4.90;;;;;;;;;;108414;1260;42206;-39
2022/12/23 04:33:52;;;;;;;6.00;4.40;;;;;;;;;;108461;1267;40149;-39
2022/12/23 04:36:28;;;;;;;6.60;4.30;;;;;;;;;;108460;1282;41663;-39
2022/12/23 04:39:03;;;;;;;6.30;4.20;;;;;;;;;;108455;1267;44722;-39
2022/12/23 04:41:37;;;;;;;6.40;4.80;;;;;;;;;;108412;1259;43472;-38
2022/12/23 04:44:12;;;;;;;6.00;4.00;;;;;;;;;;108487;1268;38889;-38
2022/12/23 04:46:46;;;;;;;6.50;4.60;;;;;;;;;;108430;1282;41156;-39
2022/12/23 04:49:20;;;;;;;5.60;4.00;;;;;;;;;;108469;1270;43216;-38
2022/12/23 04:51:55;;;;;;;5.90;4.10;;;;;;;;;;108428;1260;42248;-38
2022/12/23 04:54:30;;;;;;;6.60;4.20;;;;;;;;;;108472;1282;39033;-38
2022/12/23 04:57:06;;;;;;;6.00;4.50;;;;;;;;;;108481;1267;40405;-38
2022/12/23 04:59:41;;;;;;;7.10;4.20;;;;;;;;;;108462;1267;43191;-38
2022/12/23 05:02:16;;;;;;;5.80;4.20;;;;;;;;;;108456;1259;47886;-38
2022/12/23 05:04:50;;;;;;;5.70;3.90;;;;;;;;;;108451;1267;39097;-38
2022/12/23 05:07:24;;;;;;;5.40;3.90;;;;;;;;;;108475;1267;40368;-38
2022/12/23 05:10:00;;;;;;;6.10;4.00;;;;;;;;;;108508;1267;43360;-38
2022/12/23 05:12:35;;;;;;;5.80;3.80;;;;;;;;;;108453;1259;47912;-38
2022/12/23 05:15:12;;;;;;;5.90;4.10;;;;;;;;;;108483;1267;38890;-38
2022/12/23 05:17:46;;;;;;;6.40;4.10;;;;;;;;;;108473;1267;40164;-38
2022/12/23 05:20:23;;;;;;;5.90;4.00;;;;;;;;;;108464;1267;43339;-38
2022/12/23 05:22:58;;;;;;;6.60;4.30;;;;;;;;;;108310;1260;175820;-38
2022/12/23 05:25:34;;;;;;;5.80;3.90;;;;;;;;;;108450;1269;39086;-38
2022/12/23 05:28:09;;;;;;;6.20;4.10;;;;;;;;;;108458;1267;40700;-38
2022/12/23 05:30:44;;;;;;;5.70;3.80;;;;;;;;;;108533;1267;43392;-38
2022/12/23 05:33:18;;;;;;;6.50;4.10;;;;;;;;;;108300;1260;175426;-38
2022/12/23 05:35:53;;;;;;;6.40;4.40;;;;;;;;;;108463;1267;40115;-38
2022/12/23 05:38:28;;;;;;;6.20;3.80;;;;;;;;;;108435;1267;40190;-38
2022/12/23 05:41:03;;;;;;;6.00;3.90;;;;;;;;;;108439;1267;43168;-38
2022/12/23 05:43:38;;;;;;;5.60;3.80;;;;;;;;;;108418;1260;48218;-38
2022/12/23 05:46:12;;;;;;;7.10;3.80;;;;;;;;;;108477;1267;39064;-38
2022/12/23 05:48:47;;;;;;;5.60;3.90;;;;;;;;;;108502;1269;40322;-38
2022/12/23 05:51:21;;;;;;;5.50;3.60;;;;;;;;;;108469;1282;43022;-38
2022/12/23 05:53:55;;;;;;;5.80;4.00;;;;;;;;;;108453;1260;47885;-38
2022/12/23 05:56:30;;;;;;;5.20;3.70;;;;;;;;;;108467;1267;40165;-38
2022/12/23 05:59:04;;;;;;;5.80;3.60;;;;;;;;;;108494;1267;41383;-38
2022/12/23 06:01:39;;;;;;;5.50;3.60;;;;;;;;;;108461;1267;43144;-38
2022/12/23 06:04:13;;;;;;;5.20;3.60;;;;;;;;;;108454;1260;48058;-38
2022/12/23 06:06:48;;;;;;;5.80;3.90;;;;;;;;;;108506;1268;38970;-38
2022/12/23 06:09:22;;;;;;;5.60;3.80;;;;;;;;;;108462;1282;41624;-39
2022/12/23 06:11:56;;;;;;;5.80;3.80;;;;;;;;;;108439;1267;43185;-38
2022/12/23 06:14:30;;;;;;;5.60;3.70;;;;;;;;;;108433;1259;47980;-38
2022/12/23 06:17:04;;;;;;;6.50;3.40;;;;;;;;;;107665;1267;894249;-38
2022/12/23 06:19:39;;;;;;;5.50;3.50;;;;;;;;;;108465;1267;40038;-38
2022/12/23 06:22:14;;;;;;;5.00;3.40;;;;;;;;;;108455;1267;43257;-38
2022/12/23 06:24:48;;;;;;;6.20;3.70;;;;;;;;;;108414;1259;48847;-38
2022/12/23 06:27:22;;;;;;;5.60;3.90;;;;;;;;;;108444;1267;39075;-38
2022/12/23 06:29:56;;;;;;;5.30;3.60;;;;;;;;;;108446;1267;40253;-38
2022/12/23 06:32:30;;;;;;;5.50;3.40;;;;;;;;;;108436;1267;43176;-38
2022/12/23 06:35:12;;;;;;;5.50;3.40;;;;;;;;;;108423;1259;47589;-38
2022/12/23 06:37:47;;;;;;;5.50;3.50;;;;;;;;;;108327;1267;175772;-38
2022/12/23 06:40:24;;;;;;;6.10;3.60;;;;;;;;;;108447;1267;41286;-38
2022/12/23 06:43:00;;;;;;;5.20;3.50;;;;;;;;;;108433;1282;44350;-38
2022/12/23 06:45:37;;;;;;;5.40;3.40;;;;;;;;;;108299;1259;175788;-38
2022/12/23 06:48:11;;;;;;;5.30;3.70;;;;;;;;;;108441;1267;39037;-38
2022/12/23 06:50:46;;;;;;;6.00;3.80;;;;;;;;;;108441;1268;40161;-38
2022/12/23 06:53:21;;;;;;;4.80;3.30;;;;;;;;;;108409;1263;43362;-38
2022/12/23 06:56:02;;;;;;;6.70;3.50;;;;;;;;;;108456;1276;48462;-38
2022/12/23 06:58:37;;;;;;;4.90;2.90;;;;;;;;;;108429;1267;39323;-38
2022/12/23 07:01:11;;;;;;;5.60;3.60;;;;;;;;;;108456;1282;41315;-38
2022/12/23 07:03:48;;;;;;;5.80;3.40;;;;;;;;;;108390;1260;43411;-39
2022/12/23 07:06:22;;;;;;;5.60;3.70;;;;;;;;;;108467;1267;42460;-38
2022/12/23 07:08:56;;;;;;;5.40;3.30;;;;;;;;;;108500;1267;38948;-38
2022/12/23 07:11:31;;;;;;;6.00;3.50;;;;;;;;;;108456;1267;40622;-38
2022/12/23 07:14:05;;;;;;;6.20;3.40;;;;;;;;;;108396;1260;43718;-38
2022/12/23 07:16:40;;;;;;;6.50;3.60;;;;;;;;;;108411;1267;42657;-38
2022/12/23 07:19:17;;;;;;;6.40;3.70;;;;;;;;;;108466;1267;39081;-38
2022/12/23 07:21:51;;;;;;;5.90;3.50;;;;;;;;;;108428;1267;40230;-39
2022/12/23 07:24:25;;;;;;;5.70;3.80;;;;;;;;;;108404;1259;43258;-38
2022/12/23 07:27:00;;;;;;;6.60;3.70;;;;;;;;;;108409;1267;42567;-38
2022/12/23 07:29:34;;;;;;;7.20;3.70;;;;;;;;;;108431;1267;38913;-39
2022/12/23 07:32:09;;;;;;;5.30;3.30;;;;;;;;;;108449;1282;39890;-39
2022/12/23 07:34:44;;;;;;;7.40;3.70;;;;;;;;;;108390;1259;43317;-38
2022/12/23 07:37:18;;;;;;;5.90;3.80;;;;;;;;;;108307;1269;175773;-39
2022/12/23 07:39:53;;;;;;;7.20;4.10;;;;;;;;;;108414;1268;38905;-38
2022/12/23 07:42:27;;;;;;;6.50;4.00;;;;;;;;;;108425;1268;40149;-39
2022/12/23 07:45:20;;;;;;;6.60;3.80;;;;;;;;;;108414;1260;43309;-38
2022/12/23 07:47:57;;;;;;;7.10;3.80;;;;;;;;;;108438;1267;42182;-38
2022/12/23 07:50:32;;;;;;;5.80;3.80;;;;;;;;;;108394;1282;38948;-38
2022/12/23 07:53:07;;;;;;;8.40;4.50;;;;;;;;;;108448;1267;40484;-38
2022/12/23 07:55:41;;;;;;;6.20;4.00;;;;;;;;;;108390;1259;43065;-38
2022/12/23 07:58:18;;;;;;;7.40;4.00;;;;;;;;;;108444;1267;42232;-38
2022/12/23 08:01:01;;;;;;;8.00;6.00;;;;;;;;;;108213;1267;175780;-37
2022/12/23 08:03:38;;;;;;;9.20;7.10;;;;;;;;;;108343;1267;40280;-37
2022/12/23 08:06:14;;;;;;;9.70;6.30;;;;;;;;;;108289;1259;43134;-37
2022/12/23 08:08:49;;;;;;;11.60;7.50;;;;;;;;;;108401;1266;42561;-37
2022/12/23 08:11:23;;;;;;;8.20;6.50;;;;;;;;;;108350;1269;38909;-46
2022/12/23 08:13:57;;;;;;;9.30;6.50;;;;;;;;;;108262;1267;175590;-46
2022/12/23 08:16:33;;;;;;;7.90;4.60;;;;;;;;;;108162;1261;44688;-39
2022/12/23 08:19:19;;;;;;;8.50;4.80;;;;;;;;;;108142;1269;42394;-40
2022/12/23 08:21:53;;;;;;;7.00;4.30;;;;;;;;;;107405;1269;893542;-36
2022/12/23 08:24:28;;;;;;;7.80;4.60;;;;;;;;;;108090;1269;40782;-35
2022/12/23 08:27:02;;;;;;;10.20;4.70;;;;;;;;;;108106;1261;43262;-35
2022/12/23 08:29:36;;;;;;;7.70;4.20;;;;;;;;;;108019;1283;177687;-36
2022/12/23 08:32:10;;;;;;;6.80;3.90;;;;;;;;;;108176;1269;38908;-36
2022/12/23 08:34:44;;;;;;;6.90;3.90;;;;;;;;;;108182;1268;41507;-37
2022/12/23 08:37:18;;;;;;;7.80;4.00;;;;;;;;;;108025;1269;43198;-39
2022/12/23 08:39:52;;;;;;;6.80;4.00;;;;;;;;;;108065;1269;43558;-37
2022/12/23 08:42:26;;;;;;;6.50;4.10;;;;;;;;;;108123;1269;38925;-39
2022/12/23 08:45:01;;;;;;;6.00;3.60;;;;;;;;;;108056;1269;40242;-39
2022/12/23 08:47:37;;;;;;;5.50;3.70;;;;;;;;;;108082;1259;43331;-38
2022/12/23 08:50:17;;;;;;;6.70;3.90;;;;;;;;;;108094;1270;42395;-39
2022/12/23 08:52:51;;;;;;;5.50;3.60;;;;;;;;;;108164;1269;38943;-38
2022/12/23 08:55:28;;;;;;;6.80;3.70;;;;;;;;;;108119;1276;40368;-39
2022/12/23 08:58:02;;;;;;;6.00;3.70;;;;;;;;;;108068;1262;44444;-38
2022/12/23 09:00:37;;;;;;;6.00;3.50;;;;;;;;;;108106;1269;42240;-37
2022/12/23 09:03:14;;;;;;;5.50;3.60;;;;;;;;;;108116;1269;40541;-37
2022/12/23 09:05:48;;;;;;;6.70;3.80;;;;;;;;;;108140;1269;40585;-37
2022/12/23 09:08:22;;;;;;;5.70;3.30;;;;;;;;;;108137;1262;49809;-37
2022/12/23 09:10:58;;;;;;;6.60;4.00;;;;;;;;;;108086;1269;43293;-39
2022/12/23 09:13:32;;;;;;;6.20;3.30;;;;;;;;;;108174;1268;38858;-35
2022/12/23 09:16:10;;;;;;;6.50;4.20;;;;;;;;;;108321;1283;39890;-35
2022/12/23 09:18:44;;;;;;;7.60;4.10;;;;;;;;;;108519;1269;51518;-35
2022/12/23 09:21:20;;;;;;;8.10;4.10;;;;;;;;;;108229;1270;43739;-34
2022/12/23 09:23:54;;;;;;;6.80;4.30;;;;;;;;;;107974;1269;317746;-36
2022/12/23 09:26:30;;;;;;;7.60;4.40;;;;;;;;;;108227;1269;40301;-35
2022/12/23 09:29:04;;;;;;;7.50;4.20;;;;;;;;;;108291;1270;50335;-35
2022/12/23 09:31:37;;;;;;;7.20;4.50;;;;;;;;;;108311;1269;42411;-35
2022/12/23 09:34:13;;;;;;;7.20;4.20;;;;;;;;;;108304;1269;39014;-35
2022/12/23 09:36:47;;;;;;;7.10;4.70;;;;;;;;;;108310;1269;40049;-35
2022/12/23 09:39:27;;;;;;;7.20;4.30;;;;;;;;;;108257;1261;50403;-35
2022/12/23 09:42:18;;;;;;;7.30;4.20;;;;;;;;;;108300;1268;42367;-35
2022/12/23 09:45:08;;;;;;;7.30;4.30;;;;;;;;;;108304;1274;38851;-35
2022/12/23 09:47:43;;;;;;;7.80;4.80;;;;;;;;;;108292;1269;41564;-36
2022/12/23 09:50:25;;;;;;;9.40;4.50;;;;;;;;;;108309;1269;44425;-35
2022/12/23 09:53:05;;;;;;;6.50;4.40;;;;;;;;;;108307;1269;42395;-35
2022/12/23 09:55:49;;;;;;;8.40;4.70;;;;;;;;;;108346;1269;40135;-35
2022/12/23 09:58:30;;;;;;;8.70;4.30;;;;;;;;;;108321;1259;41679;-35
2022/12/23 10:01:22;;;;;;;7.20;4.50;;;;;;;;;;108366;1269;42993;-35
2022/12/23 10:04:34;;;;;;;7.40;4.60;;;;;;;;;;108363;1269;43478;-35
2022/12/23 10:07:33;;;;;;;8.10;4.40;;;;;;;;;;108399;1267;40224;-35
2022/12/23 10:10:16;;;;;;;8.90;4.50;;;;;;;;;;108420;1262;46638;-35
2022/12/23 10:12:51;;;;;;;;;;;;;;;;;;108306;1269;44536;-35
2022/12/23 10:15:36;;;;;;;8.10;4.60;;;;;;;;;;108320;1269;43251;-35
2022/12/23 10:18:23;;;;;;;9.20;4.60;;;;;;;;;;108302;1259;40170;-35
2022/12/23 10:21:03;;;;;;;7.70;4.50;;;;;;;;;;108339;1267;40418;-35
2022/12/23 10:23:42;;;;;;;7.60;4.30;;;;;;;;;;108360;1267;44391;-35
2022/12/23 10:26:25;;;;;;;9.00;5.00;;;;;;;;;;108362;1267;42766;-35
2022/12/23 10:29:17;;;;;;;9.70;4.80;;;;;;;;;;108245;1262;175379;-35
2022/12/23 10:32:06;;;;;;;8.20;4.70;;;;;;;;;;108343;1269;40350;-36
2022/12/23 10:34:51;;;;;;;8.40;4.20;;;;;;;;;;108317;1269;43250;-35
2022/12/23 10:37:38;;;;;;;7.90;4.60;;;;;;;;;;108293;1270;43703;-38
2022/12/23 10:40:23;;;;;;;7.70;4.60;;;;;;;;;;108304;1259;40258;-38
2022/12/23 10:43:12;;;;;;;7.40;4.40;;;;;;;;;;108426;1267;40529;-35
2022/12/23 10:45:54;;;;;;;8.70;4.90;;;;;;;;;;108267;1267;175749;-36
2022/12/23 10:48:46;;;;;;;8.30;4.70;;;;;;;;;;108376;1267;42372;-35
2022/12/23 10:51:25;;;;;;;6.90;4.80;;;;;;;;;;108286;1259;45965;-36
2022/12/23 10:54:04;;;;;;;8.40;4.40;;;;;;;;;;108344;1284;40019;-34
2022/12/23 10:56:37;;;;;;;9.00;4.70;;;;;;;;;;108350;1269;43357;-34
2022/12/23 10:59:13;;;;;;;;;;;;;;;;;;108339;1269;42436;-35
2022/12/23 11:01:52;;;;;;;7.30;4.30;;;;;;;;;;108393;1276;46242;-35
2022/12/23 11:04:35;;;;;;;8.10;4.60;;;;;;;;;;108389;1268;42865;-35
2022/12/23 11:07:12;;;;;;;6.80;4.50;;;;;;;;;;108368;1268;43342;-35
2022/12/23 11:10:16;;;;;;;8.10;4.80;;;;;;;;;;108309;1261;43760;-35
2022/12/23 11:12:53;;;;;;;8.00;4.60;;;;;;;;;;108313;1269;38949;-35
2022/12/23 11:15:34;;;;;;;6.80;4.10;;;;;;;;;;108343;1269;40360;-35
2022/12/23 11:18:19;;;;;;;7.40;4.40;;;;;;;;;;108369;1269;44586;-35
2022/12/23 11:21:09;;;;;;;7.30;4.70;;;;;;;;;;108335;1259;42394;-35
2022/12/23 11:23:43;;;;;;;6.50;3.80;;;;;;;;;;108388;1269;41450;-35
2022/12/23 11:26:21;;;;;;;5.60;3.70;;;;;;;;;;108386;1282;40269;-35
2022/12/23 11:29:06;;;;;;;7.50;4.70;;;;;;;;;;108412;1267;44558;-35
2022/12/23 11:31:42;;;;;;;7.90;4.30;;;;;;;;;;108309;1263;42355;-35
2022/12/23 11:34:21;;;;;;;8.10;4.50;;;;;;;;;;108331;1284;40415;-35
2022/12/23 11:37:01;;;;;;;8.80;4.40;;;;;;;;;;108345;1269;40547;-35
2022/12/23 11:39:46;;;;;;;6.10;4.00;;;;;;;;;;108368;1268;43302;-35
2022/12/23 11:42:26;;;;;;;7.40;3.90;;;;;;;;;;108335;1259;42333;-35
2022/12/23 11:45:08;;;;;;;7.30;4.10;;;;;;;;;;108397;1276;39023;-35
2022/12/23 11:47:43;;;;;;;6.00;4.40;;;;;;;;;;108378;1268;40547;-35
2022/12/23 11:50:37;;;;;;;7.80;4.70;;;;;;;;;;108347;1263;43102;-35
2022/12/23 11:53:23;;;;;;;6.60;4.10;;;;;;;;;;108376;1269;49542;-35
2022/12/23 11:56:04;;;;;;;7.10;4.40;;;;;;;;;;108352;1274;40553;-35
2022/12/23 11:58:47;;;;;;;6.70;4.50;;;;;;;;;;108345;1269;40257;-35
2022/12/23 12:01:24;;;;;;;8.30;4.40;;;;;;;;;;108340;1259;43079;-35
2022/12/23 12:04:02;;;;;;;7.20;4.80;;;;;;;;;;108417;1269;42345;-35
2022/12/23 12:06:39;;;;;;;8.00;4.80;;;;;;;;;;108397;1269;38730;-35
2022/12/23 12:09:15;;;;;;;6.50;4.70;;;;;;;;;;108422;1268;40471;-35
2022/12/23 12:11:53;;;;;;;8.10;5.30;;;;;;;;;;108335;1261;44653;-35
2022/12/23 12:14:37;;;;;;;7.90;5.20;;;;;;;;;;108343;1269;43627;-35
2022/12/23 12:17:21;;;;;;;7.90;4.60;;;;;;;;;;108341;1269;40136;-35
2022/12/23 12:20:12;;;;;;;7.20;4.70;;;;;;;;;;108323;1269;40493;-35
2022/12/23 12:22:51;;;;;;;7.00;4.50;;;;;;;;;;108351;1262;43444;-35
2022/12/23 12:25:38;;;;;;;7.10;4.60;;;;;;;;;;108381;1270;42100;-35
2022/12/23 12:28:19;;;;;;;9.30;5.20;;;;;;;;;;108343;1268;38978;-35
2022/12/23 12:30:59;;;;;;;7.60;4.80;;;;;;;;;;108379;1267;41519;-34
2022/12/23 12:33:41;;;;;;;6.90;5.00;;;;;;;;;;108313;1262;43204;-34
2022/12/23 12:36:21;;;;;;;8.50;5.00;;;;;;;;;;108347;1269;42761;-34
2022/12/23 12:38:56;;;;;;;7.50;4.70;;;;;;;;;;108343;1284;40609;-34
2022/12/23 12:41:37;;;;;;;6.50;4.90;;;;;;;;;;108348;1269;40513;-34
2022/12/23 12:44:28;;;;;;;7.90;5.20;;;;;;;;;;108354;1259;50284;-34
2022/12/23 12:47:09;;;;;;;6.30;4.80;;;;;;;;;;108266;1269;175740;-34
2022/12/23 12:50:12;;;;;;;7.70;4.90;;;;;;;;;;108383;1268;39137;-34
2022/12/23 12:52:46;;;;;;;7.10;5.20;;;;;;;;;;108343;1270;40445;-34
2022/12/23 12:55:28;;;;;;;8.30;5.30;;;;;;;;;;108328;1269;44781;-34
2022/12/23 12:58:03;;;;;;;6.90;5.00;;;;;;;;;;108328;1269;43387;-34
2022/12/23 13:00:49;;;;;;;8.70;5.10;;;;;;;;;;108332;1270;38940;-34
2022/12/23 13:03:51;;;;;;;7.80;4.80;;;;;;;;;;108314;1261;40480;-34
2022/12/23 13:06:34;;;;;;;8.10;5.20;;;;;;;;;;108354;1269;43287;-34
2022/12/23 13:09:24;;;;;;;7.60;5.10;;;;;;;;;;108383;1268;42344;-34
2022/12/23 13:12:08;;;;;;;8.80;5.40;;;;;;;;;;108398;1269;40241;-34
2022/12/23 13:14:56;;;;;;;9.10;4.90;;;;;;;;;;108283;1262;40375;-34
2022/12/23 13:17:36;;;;;;;7.10;4.90;;;;;;;;;;108331;1269;43420;-34
2022/12/23 13:20:20;;;;;;;7.50;5.10;;;;;;;;;;108319;1272;42490;-34
2022/12/23 13:23:02;;;;;;;7.10;4.90;;;;;;;;;;108296;1260;39072;-34
2022/12/23 13:26:02;;;;;;;7.10;4.90;;;;;;;;;;108389;1282;40461;-34
2022/12/23 13:28:45;;;;;;;7.20;4.70;;;;;;;;;;108391;1269;43363;-34
2022/12/23 13:31:35;;;;;;;7.50;5.60;;;;;;;;;;108344;1268;43857;-34
2022/12/23 13:34:23;;;;;;;7.80;5.00;;;;;;;;;;108305;1261;39206;-34
2022/12/23 13:37:04;;;;;;;7.90;5.20;;;;;;;;;;108354;1268;40379;-34
2022/12/23 13:39:52;;;;;;;7.80;5.10;;;;;;;;;;108342;1269;43318;-34
2022/12/23 13:42:38;;;;;;;8.10;5.40;;;;;;;;;;108321;1268;42516;-33
2022/12/23 13:45:18;;;;;;;7.90;5.10;;;;;;;;;;108332;1262;41462;-34
2022/12/23 13:48:05;;;;;;;7.70;5.10;;;;;;;;;;108401;1267;40379;-34
2022/12/23 13:50:46;;;;;;;7.50;5.40;;;;;;;;;;108337;1270;43255;-34
2022/12/23 13:53:27;;;;;;;7.40;4.80;;;;;;;;;;108318;1267;42246;-34
2022/12/23 13:56:14;;;;;;;8.50;5.30;;;;;;;;;;108309;1269;45459;-34
2022/12/23 13:58:51;;;;;;;7.80;5.60;;;;;;;;;;108310;1269;40197;-35
2022/12/23 14:01:36;;;;;;;7.00;5.00;;;;;;;;;;108318;1270;43239;-35
2022/12/23 14:04:37;;;;;;;8.20;5.90;;;;;;;;;;108295;1270;43876;-35
2022/12/23 14:07:22;;;;;;;9.90;6.50;;;;;;;;;;108250;1270;38866;-35
2022/12/23 14:10:00;;;;;;;10.70;7.50;;;;;;;;;;108339;1269;40405;-35
2022/12/23 14:12:39;;;;;;;13.90;7.80;;;;;;;;;;108306;1269;43287;-36
2022/12/23 14:15:46;;;;;;;14.10;7.50;;;;;;;;;;108270;1262;42442;-36
2022/12/23 14:18:48;;;;;;;11.80;7.10;;;;;;;;;;108341;1269;40292;-35
2022/12/23 14:21:37;;;;;;;12.80;7.60;;;;;;;;;;108307;1269;41627;-35
2022/12/23 14:24:36;;;;;;;11.50;7.30;;;;;;;;;;108262;1269;43694;-34
2022/12/23 14:27:33;;;;;;;12.10;6.70;;;;;;;;;;108355;1276;49545;-35
2022/12/23 14:30:15;;;;;;;9.40;6.40;;;;;;;;;;108323;1270;39132;-35
2022/12/23 14:32:52;;;;;;;11.40;6.60;;;;;;;;;;108073;1267;40272;-35
2022/12/23 14:36:13;;;;;;;9.40;6.20;;;;;;;;;;108370;1262;175697;-35
2022/12/23 14:39:31;;;;;;;12.50;7.10;;;;;;;;;;108264;1269;42427;-36
2022/12/23 14:42:05;;;;;;;9.50;6.90;;;;;;;;;;108317;1269;39152;-35
2022/12/23 14:44:50;;;;;;;11.50;7.40;;;;;;;;;;108306;1269;41458;-35
2022/12/23 14:47:36;;;;;;;13.60;7.50;;;;;;;;;;108447;1262;51412;-35
2022/12/23 14:50:38;;;;;;;11.70;7.40;;;;;;;;;;108297;1284;43725;-35
2022/12/23 14:53:27;;;;;;;14.60;7.20;;;;;;;;;;108316;1269;40195;-35
2022/12/23 14:56:34;;;;;;;9.20;6.20;;;;;;;;;;108219;1267;40199;-36
2022/12/23 14:59:20;;;;;;;11.80;7.00;;;;;;;;;;108310;1268;43429;-35
2022/12/23 15:01:57;;;;;;;9.90;6.30;;;;;;;;;;108218;1269;42451;-34
2022/12/23 15:04:40;;;;;;;9.10;6.70;;;;;;;;;;108284;1269;39094;-35
2022/12/23 15:07:22;;;;;;;10.20;6.70;;;;;;;;;;108257;1262;40308;-34
2022/12/23 15:09:58;;;;;;;11.50;6.50;;;;;;;;;;108317;1269;43275;-35
2022/12/23 15:13:51;;;;;;;10.60;6.50;;;;;;;;;;105061;1299;560707;-36
2022/12/23 15:16:34;;;;;;;9.60;6.20;;;;;;;;;;107916;1273;42727;-35
2022/12/23 15:19:21;;;;;;;10.50;6.10;;;;;;;;;;108556;1266;43096;-34
2022/12/23 15:22:10;;;;;;;9.30;6.10;;;;;;;;;;108659;1263;39174;-33
2022/12/23 15:24:57;;;;;;;9.10;6.70;;;;;;;;;;108593;1264;47858;-34
2022/12/23 15:27:43;;;;;;;9.10;7.20;;;;;;;;;;108636;1276;307807;-35
2022/12/23 15:30:18;;;;;;;11.10;6.20;;;;;;;;;;108919;1263;41508;-35
2022/12/23 15:32:58;;;;;;;10.10;6.30;;;;;;;;;;108896;1263;40101;-33
2022/12/23 15:35:38;;;;;;;9.70;6.00;;;;;;;;;;109089;1269;48195;-35
2022/12/23 15:38:17;;;;;;;10.20;6.50;;;;;;;;;;109094;1263;43776;-34
2022/12/23 15:41:03;;;;;;;8.50;5.70;;;;;;;;;;109117;1276;41694;-34
2022/12/23 15:43:43;;;;;;;9.30;6.40;;;;;;;;;;109034;1256;38835;-34
2022/12/23 15:46:22;;;;;;;8.30;5.80;;;;;;;;;;108890;1263;39802;-34
2022/12/23 15:49:04;;;;;;;9.50;6.40;;;;;;;;;;108857;1263;42218;-35
2022/12/23 15:51:42;;;;;;;8.60;6.30;;;;;;;;;;108908;1264;42755;-35
2022/12/23 15:54:43;;;;;;;7.40;5.50;;;;;;;;;;108982;1254;38595;-35
2022/12/23 15:57:21;;;;;;;8.30;6.20;;;;;;;;;;109096;1264;40186;-35
2022/12/23 15:59:55;;;;;;;8.30;5.50;;;;;;;;;;109058;1260;42719;-35
2022/12/23 16:02:33;;;;;;;9.70;6.00;;;;;;;;;;109089;1260;41499;-35
2022/12/23 16:05:31;;;;;;;8.00;6.10;;;;;;;;;;108899;1256;39067;-35
2022/12/23 16:08:25;;;;;;;7.60;5.40;;;;;;;;;;108860;1263;39947;-35
2022/12/23 16:11:15;;;;;;;7.70;5.30;;;;;;;;;;108873;1264;43578;-35
2022/12/23 16:14:02;;;;;;;7.60;5.50;;;;;;;;;;108896;1253;41690;-35